Time;durP1;ratioP1;P1;durP2;ratioP2;P2;SDS_P1;SDS_P2;PMS_P1;PMS_P2;Temp;Humidity;BMP_temperature;BMP_pressure;BME280_temperature;BME280_humidity;BME280_pressure;Samples;Min_cycle;Max_cycle;Signal;HPM_P1;HPM_P2
2023/05/27 06:27:00;;;;;;;10.50;5.63;;;16.20;46.10;;;;;;5025798;28;20233;-82
2023/05/27 06:29:28;;;;;;;10.00;5.97;;;16.40;43.60;;;;;;5031036;28;20203;-85
2023/05/27 06:31:55;;;;;;;9.20;5.72;;;16.30;45.60;;;;;;5033262;28;20230;-86
2023/05/27 06:34:22;;;;;;;13.35;5.68;;;16.40;43.20;;;;;;5012567;28;20214;-85
2023/05/27 06:36:49;;;;;;;8.68;5.38;;;16.40;42.80;;;;;;5016125;28;20547;-85
2023/05/27 06:39:24;;;;;;;11.85;5.80;;;16.50;40.90;;;;;;5030466;28;20203;-86
2023/05/27 06:42:18;;;;;;;10.63;5.53;;;16.50;41.70;;;;;;5040243;28;20200;-87
2023/05/27 06:44:46;;;;;;;11.93;5.78;;;16.50;42.00;;;;;;5012257;28;20746;-87
2023/05/27 06:47:14;;;;;;;18.25;5.63;;;16.50;44.00;;;;;;5029375;28;20206;-86
2023/05/27 06:49:41;;;;;;;12.13;5.57;;;16.60;40.70;;;;;;5036648;28;20198;-86
2023/05/27 06:52:08;;;;;;;14.93;5.35;;;16.50;42.00;;;;;;5030149;28;20219;-86
2023/05/27 06:54:36;;;;;;;12.80;5.50;;;16.60;41.30;;;;;;5016213;28;20192;-87
2023/05/27 07:00:50;;;;;;;8.73;5.35;;;16.80;40.90;;;;;;5037227;28;20206;-87
2023/05/27 07:03:17;;;;;;;10.35;5.25;;;16.90;38.00;;;;;;5037047;28;20200;-86
2023/05/27 07:05:44;;;;;;;11.40;4.93;;;16.90;39.20;;;;;;5036266;28;20229;-87
2023/05/27 07:11:45;;;;;;;16.60;6.10;;;16.90;39.30;;;;;;5036529;28;20222;-87
2023/05/27 07:27:58;;;;;;;8.45;5.00;;;17.60;33.30;;;;;;5285537;22;20235;-84
2023/05/27 07:31:08;;;;;;;11.07;5.43;;;17.70;31.60;;;;;;5014915;28;20208;-87
2023/05/27 07:44:40;;;;;;;14.02;4.85;;;18.00;30.40;;;;;;5016105;28;20234;-89
2023/05/27 07:47:54;;;;;;;15.10;4.75;;;18.10;30.40;;;;;;5015922;28;20629;-89
2023/05/27 07:50:22;;;;;;;10.18;4.90;;;18.00;30.40;;;;;;5015127;28;20198;-88
2023/05/27 07:52:49;;;;;;;9.80;4.68;;;18.20;30.60;;;;;;5015849;28;20231;-90
2023/05/27 08:02:38;;;;;;;10.20;5.00;;;18.50;30.80;;;;;;5015709;28;20171;-90
2023/05/27 08:08:33;;;;;;;11.50;4.90;;;18.70;31.00;;;;;;5008847;28;20215;-87
2023/05/27 08:11:10;;;;;;;9.32;4.95;;;18.80;27.50;;;;;;5016963;28;20191;-87
2023/05/27 08:13:36;;;;;;;12.82;5.20;;;18.90;27.50;;;;;;5015418;28;20211;-88
2023/05/27 08:16:04;;;;;;;14.23;5.10;;;19.00;26.80;;;;;;5014762;28;20204;-85
2023/05/27 08:18:31;;;;;;;15.93;5.75;;;19.20;27.10;;;;;;5020726;28;20305;-87
2023/05/27 08:20:58;;;;;;;11.88;5.15;;;19.80;26.00;;;;;;5008242;28;20575;-86
2023/05/27 08:23:26;;;;;;;9.30;5.25;;;20.90;23.90;;;;;;5006873;28;20206;-84
2023/05/27 08:25:55;;;;;;;8.55;5.30;;;22.80;19.60;;;;;;5000283;28;20199;-84
2023/05/27 08:28:22;;;;;;;11.40;5.40;;;23.90;17.40;;;;;;5009914;28;20298;-87
2023/05/27 08:30:49;;;;;;;10.13;5.32;;;24.40;15.10;;;;;;5008126;28;20262;-85
2023/05/27 08:33:15;;;;;;;13.23;5.85;;;24.70;14.00;;;;;;5009110;28;20222;-85
2023/05/27 08:35:42;;;;;;;11.43;5.47;;;24.00;15.30;;;;;;5010452;28;20203;-85
2023/05/27 08:38:09;;;;;;;11.80;5.50;;;23.30;17.40;;;;;;5016737;28;20214;-86
2023/05/27 08:40:36;;;;;;;10.32;5.45;;;23.10;17.80;;;;;;5009142;28;20203;-84
2023/05/27 08:43:06;;;;;;;10.60;5.55;;;23.00;16.50;;;;;;5005184;28;20211;-84
2023/05/27 08:45:34;;;;;;;11.00;5.43;;;23.30;17.20;;;;;;5009921;28;20203;-83
2023/05/27 08:48:02;;;;;;;10.05;5.53;;;23.90;16.00;;;;;;5014055;28;20203;-85
2023/05/27 08:50:29;;;;;;;10.57;5.82;;;25.10;14.20;;;;;;5004683;28;20876;-84
2023/05/27 08:52:56;;;;;;;12.15;5.47;;;25.60;14.50;;;;;;5010439;28;20211;-86
2023/05/27 08:55:23;;;;;;;9.95;5.72;;;26.80;12.40;;;;;;4995117;28;20206;-82
2023/05/27 08:57:53;;;;;;;9.82;5.13;;;27.30;11.00;;;;;;5008404;28;20656;-84
2023/05/27 09:00:22;;;;;;;11.40;5.80;;;27.60;11.00;;;;;;5011336;28;21035;-86
2023/05/27 09:02:49;;;;;;;11.60;5.90;;;27.60;11.30;;;;;;5009063;28;20207;-85
2023/05/27 09:05:17;;;;;;;9.75;6.45;;;27.90;11.20;;;;;;5011144;28;20199;-85
2023/05/27 09:07:44;;;;;;;13.07;6.32;;;28.40;9.70;;;;;;5010157;28;20208;-87
2023/05/27 09:10:11;;;;;;;10.05;6.15;;;28.70;8.80;;;;;;5006765;28;20198;-85
2023/05/27 09:12:39;;;;;;;11.05;5.75;;;29.00;8.50;;;;;;5007458;28;20237;-84
2023/05/27 09:15:07;;;;;;;9.15;5.80;;;28.20;9.50;;;;;;5005631;28;20579;-85
2023/05/27 09:17:41;;;;;;;9.05;5.78;;;28.80;9.00;;;;;;5006886;28;20234;-85
2023/05/27 09:20:10;;;;;;;11.48;6.43;;;29.50;7.50;;;;;;5014630;28;20195;-85
2023/05/27 09:22:38;;;;;;;10.73;5.95;;;29.00;8.70;;;;;;5013718;28;20215;-85
2023/05/27 09:25:06;;;;;;;8.70;5.60;;;28.80;9.30;;;;;;5016031;28;20206;-85
2023/05/27 09:27:33;;;;;;;10.45;6.22;;;28.50;9.30;;;;;;5010941;28;20661;-83
2023/05/27 09:30:07;;;;;;;10.27;6.38;;;28.80;9.20;;;;;;5013242;28;20199;-84
2023/05/27 09:32:36;;;;;;;11.95;6.45;;;29.00;8.10;;;;;;5007355;28;20218;-85
2023/05/27 09:35:07;;;;;;;11.43;6.43;;;28.90;8.30;;;;;;5000223;28;20596;-85
2023/05/27 09:37:35;;;;;;;12.70;6.68;;;28.80;8.70;;;;;;5022648;28;20204;-85
2023/05/27 09:40:07;;;;;;;8.02;5.78;;;29.40;7.80;;;;;;5013097;28;20223;-85
2023/05/27 09:42:45;;;;;;;9.20;6.05;;;29.30;9.90;;;;;;5009644;28;20201;-85
2023/05/27 09:45:13;;;;;;;10.35;6.93;;;29.10;8.30;;;;;;5014768;28;20191;-85
2023/05/27 09:47:42;;;;;;;13.65;7.38;;;29.00;8.20;;;;;;5008813;28;20321;-84
2023/05/27 09:50:14;;;;;;;10.45;7.05;;;29.60;6.80;;;;;;5010728;28;20210;-84
2023/05/27 09:52:42;;;;;;;9.93;6.22;;;28.80;9.00;;;;;;5011661;28;20301;-84
2023/05/27 09:55:11;;;;;;;11.55;6.97;;;29.70;6.90;;;;;;5008219;28;20199;-89
2023/05/27 09:57:38;;;;;;;11.07;6.72;;;29.00;9.40;;;;;;5005897;28;20198;-84
2023/05/27 10:00:11;;;;;;;12.65;6.57;;;28.10;10.30;;;;;;5002640;28;20210;-85
2023/05/27 10:02:38;;;;;;;10.50;6.10;;;27.40;11.40;;;;;;4996253;28;20649;-84
2023/05/27 10:05:08;;;;;;;9.35;6.80;;;27.70;9.90;;;;;;5010620;28;20199;-85
2023/05/27 10:07:37;;;;;;;9.52;6.53;;;28.30;9.10;;;;;;4991442;28;20203;-83
2023/05/27 10:10:06;;;;;;;9.40;6.10;;;28.20;8.60;;;;;;5005111;28;20206;-84
2023/05/27 10:12:33;;;;;;;9.05;6.63;;;28.40;8.80;;;;;;5003663;28;20233;-85
2023/05/27 10:15:00;;;;;;;10.05;6.50;;;27.60;9.70;;;;;;5000788;28;20195;-85
2023/05/27 10:17:29;;;;;;;12.70;7.00;;;27.70;10.10;;;;;;5013253;28;20226;-84
2023/05/27 10:19:57;;;;;;;8.93;6.47;;;27.90;10.20;;;;;;5003295;28;20199;-83
2023/05/27 10:22:26;;;;;;;9.60;6.47;;;27.80;9.60;;;;;;5003648;28;20229;-87
2023/05/27 10:24:53;;;;;;;11.82;6.30;;;27.70;11.50;;;;;;4998503;28;20204;-86
2023/05/27 10:27:21;;;;;;;9.30;6.32;;;27.70;8.80;;;;;;5005917;28;20211;-83
2023/05/27 10:29:58;;;;;;;11.50;6.53;;;27.50;9.00;;;;;;5015734;28;20202;-88
2023/05/27 10:32:25;;;;;;;8.90;5.95;;;28.10;9.00;;;;;;5007958;28;20210;-82
2023/05/27 10:34:55;;;;;;;8.27;6.05;;;27.80;10.10;;;;;;4999266;28;20195;-85
2023/05/27 10:37:23;;;;;;;11.88;6.07;;;27.90;8.20;;;;;;5006512;28;20216;-83
2023/05/27 10:39:59;;;;;;;7.97;5.32;;;28.10;7.90;;;;;;5009715;28;20202;-82
2023/05/27 10:42:25;;;;;;;8.30;6.03;;;27.70;8.70;;;;;;5006122;28;20209;-81
2023/05/27 10:45:07;;;;;;;8.65;5.55;;;28.30;9.70;;;;;;4997569;28;20200;-84
2023/05/27 10:47:37;;;;;;;13.38;6.07;;;27.90;8.60;;;;;;5002716;28;20276;-83
2023/05/27 10:50:14;;;;;;;8.18;5.57;;;28.20;6.70;;;;;;5006246;28;20206;-86
2023/05/27 10:52:42;;;;;;;9.98;6.00;;;28.30;8.40;;;;;;5011337;28;20225;-84
2023/05/27 10:55:11;;;;;;;9.40;5.82;;;28.00;8.00;;;;;;5007949;28;20664;-85
2023/05/27 10:57:38;;;;;;;10.70;5.75;;;27.80;8.20;;;;;;5001091;28;20207;-84
2023/05/27 11:00:08;;;;;;;7.97;5.93;;;28.00;8.90;;;;;;5007540;28;20226;-83
2023/05/27 11:02:37;;;;;;;9.65;5.85;;;28.10;8.90;;;;;;5015711;28;20195;-84
2023/05/27 11:05:10;;;;;;;8.32;6.03;;;27.30;9.30;;;;;;5002802;28;20199;-83
2023/05/27 11:07:39;;;;;;;8.90;5.95;;;26.50;10.80;;;;;;5002284;28;20249;-87
2023/05/27 11:10:08;;;;;;;8.98;5.82;;;26.20;10.50;;;;;;5000352;28;20199;-86
2023/05/27 11:12:36;;;;;;;11.25;5.80;;;25.60;14.40;;;;;;5002681;28;20682;-84
2023/05/27 11:15:04;;;;;;;9.80;5.70;;;25.30;14.30;;;;;;5012216;28;20269;-86
2023/05/27 11:17:31;;;;;;;8.18;5.25;;;24.90;13.30;;;;;;5006472;28;20267;-85
2023/05/27 11:19:58;;;;;;;9.85;5.50;;;24.80;14.10;;;;;;5005953;28;20962;-90
2023/05/27 11:22:25;;;;;;;9.98;5.95;;;24.70;14.00;;;;;;5007577;28;20235;-85
2023/05/27 11:25:00;;;;;;;10.38;6.00;;;24.70;13.70;;;;;;5009210;28;20212;-88
2023/05/27 11:27:35;;;;;;;12.40;5.32;;;24.60;14.00;;;;;;5011849;28;20294;-84
2023/05/27 11:30:09;;;;;;;12.20;5.80;;;24.40;13.80;;;;;;5007063;28;20717;-84
2023/05/27 11:32:36;;;;;;;12.10;5.57;;;24.30;13.70;;;;;;5009874;28;20301;-83
2023/05/27 11:35:05;;;;;;;9.30;5.30;;;24.20;13.70;;;;;;5010944;28;20193;-86
2023/05/27 11:37:32;;;;;;;9.25;5.25;;;24.10;13.60;;;;;;5016617;28;20698;-86
2023/05/27 11:40:00;;;;;;;8.10;4.80;;;24.10;13.60;;;;;;5009930;28;20253;-87
2023/05/27 11:42:29;;;;;;;9.15;5.40;;;24.10;13.60;;;;;;5004348;28;20538;-85
2023/05/27 11:44:59;;;;;;;9.88;5.25;;;24.10;13.60;;;;;;5009979;28;20209;-85
2023/05/27 11:47:27;;;;;;;10.55;4.75;;;23.90;13.50;;;;;;5002113;28;20207;-88
2023/05/27 11:49:54;;;;;;;9.38;5.05;;;24.00;13.50;;;;;;5013480;28;20194;-86
2023/05/27 11:52:24;;;;;;;10.48;5.25;;;24.10;13.60;;;;;;5009024;28;20711;-86
2023/05/27 11:54:52;;;;;;;10.90;4.97;;;23.80;13.40;;;;;;5006040;28;20198;-88
2023/05/27 11:57:18;;;;;;;8.48;5.25;;;23.50;13.20;;;;;;5003409;28;20258;-86
2023/05/27 11:59:45;;;;;;;7.97;4.57;;;23.40;13.20;;;;;;4996257;28;20222;-85
2023/05/27 12:02:12;;;;;;;9.27;4.93;;;23.30;14.50;;;;;;5005506;28;20210;-86
2023/05/27 12:05:20;;;;;;;14.10;5.25;;;23.20;14.60;;;;;;5016301;28;20186;-86
2023/05/27 12:07:49;;;;;;;6.97;4.78;;;23.10;13.70;;;;;;5016185;28;20210;-87
2023/05/27 12:10:16;;;;;;;9.40;5.72;;;23.10;13.00;;;;;;5016520;28;20199;-85
2023/05/27 12:16:39;;;;;;;13.57;6.07;;;23.40;14.20;;;;;;5015440;28;20666;-87
2023/05/27 12:19:06;;;;;;;10.55;6.10;;;23.50;13.20;;;;;;5012655;28;20301;-88
2023/05/27 12:21:33;;;;;;;9.20;5.95;;;23.40;13.20;;;;;;5017925;28;20199;-89
2023/05/27 12:24:02;;;;;;;8.68;4.88;;;23.30;13.10;;;;;;5016220;28;20199;-88
2023/05/27 12:26:45;;;;;;;12.02;5.15;;;23.40;13.80;;;;;;5005686;28;20652;-87
2023/05/27 12:29:12;;;;;;;8.82;4.95;;;23.50;13.20;;;;;;4998328;28;20222;-89
2023/05/27 12:31:39;;;;;;;12.00;6.80;;;23.40;13.20;;;;;;5020972;28;20209;-85
2023/05/27 12:34:06;;;;;;;10.85;4.75;;;23.50;13.20;;;;;;5018336;28;20215;-87
2023/05/27 12:36:33;;;;;;;10.52;5.18;;;23.50;13.20;;;;;;5015953;28;20188;-88
2023/05/27 12:39:09;;;;;;;8.85;4.68;;;23.40;13.20;;;;;;5016253;28;20202;-88
2023/05/27 12:41:37;;;;;;;8.20;4.30;;;23.50;13.20;;;;;;4999701;28;20234;-89
2023/05/27 12:44:04;;;;;;;9.00;4.70;;;23.60;13.30;;;;;;5030043;28;20207;-88
2023/05/27 12:46:31;;;;;;;10.52;4.72;;;23.40;13.20;;;;;;5031690;28;20198;-88
2023/05/27 12:48:58;;;;;;;9.60;4.93;;;23.40;13.70;;;;;;5002198;28;20644;-88
2023/05/27 12:54:12;;;;;;;7.55;4.93;;;23.40;14.20;;;;;;5007453;28;20254;-91
2023/05/27 12:56:39;;;;;;;11.70;5.55;;;23.40;13.20;;;;;;5007268;28;20199;-88
2023/05/27 12:59:06;;;;;;;7.97;4.68;;;23.40;13.20;;;;;;5008080;28;20203;-86
2023/05/27 13:01:33;;;;;;;9.27;5.20;;;23.60;13.30;;;;;;5004613;28;20207;-87
2023/05/27 13:04:00;;;;;;;7.18;4.78;;;23.50;13.20;;;;;;4996066;28;20241;-87
2023/05/27 13:06:27;;;;;;;10.10;4.95;;;23.50;13.20;;;;;;5013471;28;20195;-86
2023/05/27 13:25:12;;;;;;;10.00;5.07;;;23.10;13.00;;;;;;5014776;28;20651;-85
2023/05/27 13:31:05;;;;;;;9.63;4.90;;;23.20;13.00;;;;;;5015041;28;20180;-85
2023/05/27 13:33:59;;;;;;;9.05;4.68;;;23.20;13.00;;;;;;5024457;28;20314;-85
2023/05/27 13:36:26;;;;;;;8.93;4.63;;;23.10;13.00;;;;;;5013353;28;20210;-87
2023/05/27 13:53:16;;;;;;;10.60;4.68;;;23.20;13.00;;;;;;5014632;28;20236;-86
2023/05/27 13:59:10;;;;;;;7.90;4.60;;;23.20;13.00;;;;;;5018927;28;20171;-88
2023/05/27 14:12:21;;;;;;;16.15;7.28;;;22.90;12.80;;;;;;5018947;28;20187;-89
2023/05/27 14:14:50;;;;;;;8.68;4.80;;;22.90;12.80;;;;;;5007669;28;20228;-89
2023/05/27 14:17:16;;;;;;;11.15;4.60;;;22.80;12.80;;;;;;5014687;28;20218;-87
2023/05/27 14:19:44;;;;;;;10.25;4.20;;;22.80;12.80;;;;;;5017379;28;20207;-87
2023/05/27 14:26:02;;;;;;;8.25;4.80;;;23.00;12.90;;;;;;5018684;28;20194;-88
2023/05/27 14:28:33;;;;;;;7.95;4.15;;;23.00;12.90;;;;;;5000020;28;20218;-87
2023/05/27 14:31:01;;;;;;;10.30;4.70;;;23.00;12.90;;;;;;5015835;28;20210;-87
2023/05/27 14:33:28;;;;;;;8.30;4.40;;;23.00;12.90;;;;;;5015114;28;20239;-87
2023/05/27 14:35:55;;;;;;;9.32;4.03;;;23.00;12.90;;;;;;5014821;28;20200;-87
2023/05/27 14:38:22;;;;;;;8.40;4.45;;;22.90;12.80;;;;;;5007129;28;20210;-87
2023/05/27 14:40:50;;;;;;;7.70;4.30;;;22.80;12.80;;;;;;5011526;28;20273;-86
2023/05/27 14:43:17;;;;;;;8.32;4.18;;;22.70;12.70;;;;;;5014257;28;20227;-86
2023/05/27 14:45:44;;;;;;;9.00;4.50;;;22.70;12.70;;;;;;5010185;28;20203;-87
2023/05/27 14:48:12;;;;;;;9.45;4.35;;;22.70;12.70;;;;;;5013132;28;20195;-87
2023/05/27 14:50:40;;;;;;;9.25;4.47;;;22.70;12.70;;;;;;5005449;28;20207;-91
2023/05/27 14:53:07;;;;;;;7.55;4.38;;;22.70;12.70;;;;;;4991570;28;20219;-83
2023/05/27 14:55:35;;;;;;;7.78;4.50;;;22.80;12.80;;;;;;5015092;28;20266;-83
2023/05/27 14:58:04;;;;;;;7.70;4.55;;;22.80;12.80;;;;;;5017439;28;20203;-85
2023/05/27 15:00:31;;;;;;;9.13;4.43;;;22.90;12.80;;;;;;5002017;28;20221;-86
2023/05/27 15:02:58;;;;;;;8.15;4.38;;;22.80;13.60;;;;;;5003778;28;20206;-85
2023/05/27 15:05:26;;;;;;;9.52;4.60;;;22.80;12.80;;;;;;5011827;28;20211;-86
2023/05/27 15:07:53;;;;;;;8.35;4.55;;;22.70;12.70;;;;;;5012668;28;20203;-82
2023/05/27 15:10:21;;;;;;;8.38;4.68;;;22.60;13.50;;;;;;5019854;28;20198;-87
2023/05/27 15:12:50;;;;;;;7.10;4.40;;;22.50;12.60;;;;;;4993182;28;20200;-88
2023/05/27 15:15:20;;;;;;;8.07;4.45;;;22.50;12.60;;;;;;5004654;28;20203;-85
2023/05/27 15:17:47;;;;;;;8.00;4.18;;;22.50;12.60;;;;;;5003641;28;20211;-82
2023/05/27 15:20:16;;;;;;;7.25;4.10;;;22.50;12.60;;;;;;5009018;28;20207;-85
2023/05/27 15:22:46;;;;;;;7.85;4.10;;;22.40;12.50;;;;;;5005973;28;20210;-88
2023/05/27 15:25:13;;;;;;;8.27;4.68;;;22.40;12.50;;;;;;5002137;28;20211;-87
2023/05/27 15:27:41;;;;;;;9.57;4.28;;;22.40;12.50;;;;;;4994714;28;20208;-86
2023/05/27 15:30:08;;;;;;;6.35;3.85;;;22.30;11.50;;;;;;5010067;28;20191;-87
2023/05/27 15:32:38;;;;;;;8.40;4.13;;;22.30;11.90;;;;;;5008272;28;20214;-86
2023/05/27 15:35:06;;;;;;;7.60;4.43;;;22.20;12.40;;;;;;5012080;28;20230;-87
2023/05/27 15:37:34;;;;;;;7.82;4.15;;;22.10;12.30;;;;;;5008362;28;20690;-83
2023/05/27 15:40:03;;;;;;;7.85;3.95;;;22.10;12.30;;;;;;5013229;28;20199;-84
2023/05/27 15:42:30;;;;;;;8.73;3.80;;;22.10;12.30;;;;;;5010814;28;20225;-83
2023/05/27 15:44:57;;;;;;;8.00;4.18;;;22.10;12.30;;;;;;5008274;28;20218;-84
2023/05/27 15:47:24;;;;;;;7.93;4.13;;;22.10;12.30;;;;;;5014153;28;20563;-83
2023/05/27 15:49:51;;;;;;;6.75;4.03;;;22.20;12.40;;;;;;5007384;28;20258;-86
2023/05/27 15:52:17;;;;;;;7.85;4.25;;;22.20;11.40;;;;;;5009888;28;20201;-85
2023/05/27 15:54:45;;;;;;;7.85;4.32;;;22.00;12.20;;;;;;5014592;28;20229;-87
2023/05/27 15:57:13;;;;;;;7.40;3.60;;;22.00;12.20;;;;;;5016674;28;20278;-87
2023/05/27 15:59:40;;;;;;;5.53;3.55;;;21.90;12.20;;;;;;5009999;28;20200;-85
2023/05/27 16:02:08;;;;;;;7.65;3.83;;;21.90;12.20;;;;;;5006033;28;20206;-85
2023/05/27 16:04:35;;;;;;;6.03;3.88;;;21.90;11.80;;;;;;5010825;28;20286;-85
2023/05/27 16:07:02;;;;;;;7.40;4.15;;;21.90;12.20;;;;;;5022241;28;20199;-86
2023/05/27 16:09:29;;;;;;;6.13;3.67;;;21.80;12.10;;;;;;5011101;28;20203;-85
2023/05/27 16:11:56;;;;;;;7.50;4.00;;;21.80;12.10;;;;;;5011290;28;20206;-83
2023/05/27 16:14:24;;;;;;;7.35;4.10;;;21.80;12.10;;;;;;5013580;28;20219;-85
2023/05/27 16:16:51;;;;;;;8.63;3.80;;;21.70;12.10;;;;;;5010840;28;20654;-86
2023/05/27 16:19:18;;;;;;;6.20;3.40;;;21.80;12.10;;;;;;4987705;28;20758;-82
2023/05/27 16:21:47;;;;;;;9.20;3.55;;;21.60;12.00;;;;;;5005677;28;20286;-83
2023/05/27 16:24:15;;;;;;;6.47;3.20;;;21.60;12.00;;;;;;5002817;28;20207;-79
2023/05/27 16:26:42;;;;;;;4.53;3.22;;;21.60;12.00;;;;;;5011817;28;20209;-83
2023/05/27 16:29:10;;;;;;;6.53;3.80;;;21.70;12.10;;;;;;5009219;28;20243;-79
2023/05/27 16:31:38;;;;;;;8.07;3.30;;;21.60;12.00;;;;;;5002663;28;20214;-83
2023/05/27 16:34:06;;;;;;;5.30;3.22;;;21.60;11.80;;;;;;5005912;28;20215;-84
2023/05/27 16:36:36;;;;;;;5.22;3.28;;;21.60;12.00;;;;;;5009582;28;20270;-88
2023/05/27 16:39:03;;;;;;;6.75;3.83;;;21.40;11.90;;;;;;5011041;28;20302;-87
2023/05/27 16:41:31;;;;;;;8.15;3.60;;;21.40;11.90;;;;;;5005537;28;20659;-86
2023/05/27 16:43:58;;;;;;;6.40;3.72;;;21.40;11.90;;;;;;5009462;28;20209;-87
2023/05/27 16:46:25;;;;;;;5.43;3.33;;;21.30;11.90;;;;;;5008001;28;20204;-84
2023/05/27 16:48:54;;;;;;;6.63;3.20;;;21.20;11.70;;;;;;5008038;28;20203;-87
2023/05/27 16:51:23;;;;;;;6.55;3.33;;;21.10;11.70;;;;;;5010627;28;20603;-86
2023/05/27 16:53:50;;;;;;;8.13;3.42;;;21.10;11.70;;;;;;4999436;28;20293;-86
2023/05/27 16:56:17;;;;;;;8.52;3.55;;;21.10;11.70;;;;;;5016957;28;20222;-84
2023/05/27 16:58:44;;;;;;;8.07;3.35;;;21.00;11.60;;;;;;5023459;28;20199;-84
2023/05/27 17:01:11;;;;;;;9.18;3.40;;;20.90;11.50;;;;;;5014989;28;20211;-85
2023/05/27 17:03:38;;;;;;;5.65;3.40;;;20.90;11.50;;;;;;5022741;28;20203;-84
2023/05/27 17:06:07;;;;;;;8.27;3.95;;;21.00;11.60;;;;;;5011739;28;20278;-86
2023/05/27 17:08:34;;;;;;;6.90;3.45;;;21.00;11.60;;;;;;5008445;28;20250;-86
2023/05/27 17:11:01;;;;;;;6.50;3.38;;;20.90;11.50;;;;;;5017453;28;20195;-88
2023/05/27 17:13:31;;;;;;;7.20;3.13;;;20.80;11.50;;;;;;5001708;28;20210;-83
2023/05/27 17:16:00;;;;;;;8.30;3.20;;;20.70;11.40;;;;;;4990354;28;20608;-86
2023/05/27 17:18:29;;;;;;;7.63;3.50;;;20.70;11.40;;;;;;5009684;28;20220;-88
2023/05/27 17:20:56;;;;;;;7.05;3.50;;;20.70;11.40;;;;;;5009698;28;20190;-85
2023/05/27 17:26:06;;;;;;;8.40;3.30;;;20.70;11.40;;;;;;5017360;28;20212;-85
2023/05/27 17:28:33;;;;;;;7.50;3.40;;;20.70;11.40;;;;;;5010149;28;20568;-85
2023/05/27 17:31:00;;;;;;;8.73;3.50;;;20.70;11.40;;;;;;5010558;28;20238;-87
2023/05/27 17:33:28;;;;;;;7.35;3.63;;;20.60;13.20;;;;;;5012141;28;20227;-86
2023/05/27 17:35:55;;;;;;;5.78;3.30;;;20.40;12.40;;;;;;5005168;28;20632;-86
2023/05/27 17:38:25;;;;;;;7.35;3.47;;;20.40;12.90;;;;;;5012164;28;20211;-91
2023/05/27 17:44:02;;;;;;;8.20;3.25;;;20.30;12.30;;;;;;5011382;28;20211;-88
2023/05/27 17:46:31;;;;;;;7.03;3.35;;;20.30;11.60;;;;;;5014540;28;20296;-90
2023/05/27 17:52:03;;;;;;;6.35;3.28;;;20.20;13.00;;;;;;5027248;28;20214;-86
2023/05/27 17:54:30;;;;;;;6.00;3.03;;;20.10;11.80;;;;;;5010577;28;20215;-89
2023/05/27 17:59:40;;;;;;;6.43;3.17;;;20.00;11.00;;;;;;5000792;28;20241;-89
2023/05/27 18:02:09;;;;;;;9.48;3.65;;;19.90;11.40;;;;;;5007947;28;20262;-87
2023/05/27 18:04:36;;;;;;;7.70;3.58;;;19.90;11.90;;;;;;5009464;28;20213;-89
2023/05/27 18:07:03;;;;;;;6.70;3.42;;;19.80;12.50;;;;;;5007334;28;20207;-89
2023/05/27 18:09:30;;;;;;;7.95;3.72;;;19.70;12.70;;;;;;5007041;28;20207;-91
2023/05/27 18:11:58;;;;;;;6.53;3.45;;;19.60;12.60;;;;;;5002126;28;20564;-90
2023/05/27 18:14:28;;;;;;;5.68;3.47;;;19.60;13.40;;;;;;5008749;28;20699;-90
2023/05/27 18:16:56;;;;;;;7.88;3.58;;;19.50;13.50;;;;;;5006876;28;20238;-84
2023/05/27 18:19:28;;;;;;;8.88;3.45;;;19.40;13.30;;;;;;4992707;28;20751;-87
2023/05/27 18:27:30;;;;;;;6.78;3.30;;;19.20;14.20;;;;;;5011966;28;20207;-87
2023/05/27 18:29:59;;;;;;;5.88;3.38;;;19.20;13.90;;;;;;5013006;28;20202;-87
2023/05/27 18:32:29;;;;;;;7.38;3.70;;;19.20;13.80;;;;;;5016573;28;20692;-91
2023/05/27 18:34:59;;;;;;;9.68;3.30;;;19.20;13.90;;;;;;5013755;28;20265;-89
2023/05/27 19:00:47;;;;;;;6.28;3.63;;;18.10;17.90;;;;;;4980698;28;20636;-89
2023/05/27 19:03:15;;;;;;;19.23;3.85;;;18.00;18.00;;;;;;5015443;28;20644;-89
2023/05/27 19:05:42;;;;;;;8.30;3.53;;;17.90;18.90;;;;;;5018769;28;20207;-91
2023/05/27 19:08:09;;;;;;;6.85;3.33;;;17.80;19.10;;;;;;5015905;28;20217;-90
2023/05/27 19:10:38;;;;;;;8.20;4.07;;;17.70;19.90;;;;;;5017005;28;20632;-89
2023/05/27 19:16:50;;;;;;;10.00;4.10;;;17.50;19.90;;;;;;5017754;28;20703;-91
2023/05/27 19:51:11;;;;;;;10.13;4.40;;;16.60;23.80;;;;;;5038856;28;20333;-87
2023/05/27 19:56:40;;;;;;;8.52;4.25;;;16.50;24.60;;;;;;5021547;28;20195;-86
2023/05/27 19:59:07;;;;;;;9.77;4.50;;;16.40;25.10;;;;;;5033614;28;20233;-87
2023/05/27 20:01:36;;;;;;;8.13;4.78;;;16.40;25.60;;;;;;5030758;28;20198;-89
2023/05/27 20:04:03;;;;;;;9.52;4.82;;;16.30;25.40;;;;;;5034023;28;20213;-89
2023/05/27 20:06:32;;;;;;;9.07;4.68;;;16.20;25.80;;;;;;5035157;28;20644;-90
2023/05/27 20:09:00;;;;;;;10.18;4.60;;;16.10;26.30;;;;;;5023821;28;20716;-89
2023/05/27 20:11:27;;;;;;;10.48;4.85;;;16.10;27.10;;;;;;5038309;28;20212;-90
2023/05/27 20:13:54;;;;;;;7.28;4.60;;;16.10;28.00;;;;;;5031893;28;20199;-88
2023/05/27 20:16:22;;;;;;;6.43;4.25;;;16.00;28.70;;;;;;5034567;28;20229;-87
2023/05/27 20:18:49;;;;;;;10.18;5.07;;;16.00;28.70;;;;;;5012377;28;20373;-88
2023/05/27 20:21:17;;;;;;;10.73;4.88;;;15.90;28.60;;;;;;5010633;28;20257;-87
2023/05/27 20:23:45;;;;;;;8.88;4.72;;;15.80;28.50;;;;;;5004766;28;20222;-87
2023/05/27 20:28:56;;;;;;;8.00;4.78;;;15.70;28.40;;;;;;5007361;28;20203;-90
2023/05/27 20:31:23;;;;;;;8.48;4.97;;;15.60;28.40;;;;;;5012774;28;20199;-88
2023/05/27 20:33:52;;;;;;;10.18;5.13;;;15.50;29.50;;;;;;5008385;28;20242;-89
2023/05/27 20:36:19;;;;;;;12.63;4.70;;;15.50;29.50;;;;;;5004542;28;20219;-88
2023/05/27 20:38:56;;;;;;;10.98;4.93;;;15.50;28.30;;;;;;5009022;28;20199;-89
2023/05/27 20:41:27;;;;;;;8.95;4.78;;;15.50;29.00;;;;;;5006061;28;20258;-87
2023/05/27 20:43:56;;;;;;;7.07;4.93;;;15.50;29.30;;;;;;5005814;28;20253;-89
2023/05/27 20:46:26;;;;;;;9.68;4.63;;;15.50;29.20;;;;;;5012097;28;20287;-88
2023/05/27 20:51:36;;;;;;;8.10;4.50;;;15.60;28.60;;;;;;5006105;28;20203;-90
2023/05/27 20:54:04;;;;;;;8.50;4.90;;;15.60;29.60;;;;;;5009418;28;20675;-89
2023/05/27 20:56:33;;;;;;;12.18;5.03;;;15.60;30.20;;;;;;5009535;28;20621;-87
2023/05/27 20:59:00;;;;;;;10.27;5.07;;;15.60;31.30;;;;;;5008369;28;20579;-87
2023/05/27 21:01:29;;;;;;;11.27;5.25;;;15.50;32.20;;;;;;5005298;28;20290;-90
2023/05/27 21:03:56;;;;;;;8.55;4.82;;;15.40;33.80;;;;;;5004137;28;20200;-88
2023/05/27 21:06:23;;;;;;;9.90;4.88;;;15.30;34.40;;;;;;5010175;28;20227;-90
2023/05/27 21:08:51;;;;;;;7.50;4.50;;;15.20;35.70;;;;;;4993798;28;20199;-89
2023/05/27 21:11:20;;;;;;;10.88;5.10;;;15.10;36.20;;;;;;5001292;28;20204;-86
2023/05/27 21:13:51;;;;;;;11.82;4.93;;;15.10;35.80;;;;;;5006593;28;20206;-90
2023/05/27 21:16:18;;;;;;;10.25;4.88;;;15.00;36.70;;;;;;5003139;28;20286;-86
2023/05/27 21:18:45;;;;;;;9.93;5.05;;;15.00;37.40;;;;;;5008671;28;20718;-87
2023/05/27 21:21:12;;;;;;;7.82;4.55;;;15.00;37.40;;;;;;5008944;28;20195;-87
2023/05/27 21:23:42;;;;;;;11.57;5.25;;;15.00;38.40;;;;;;5000360;28;20206;-88
2023/05/27 21:26:11;;;;;;;9.40;4.95;;;14.90;38.10;;;;;;5008508;28;20203;-88
2023/05/27 21:28:38;;;;;;;8.20;4.80;;;14.90;38.70;;;;;;5018383;28;20628;-88
2023/05/27 21:31:12;;;;;;;9.88;4.90;;;14.90;39.30;;;;;;5007220;28;20213;-85
2023/05/27 21:33:39;;;;;;;8.52;4.78;;;14.70;39.10;;;;;;5006604;28;20858;-90
2023/05/27 21:36:07;;;;;;;10.07;5.35;;;14.70;39.50;;;;;;5012772;28;21160;-89
2023/05/27 21:38:34;;;;;;;8.73;4.90;;;14.70;40.00;;;;;;5011614;28;20204;-89
2023/05/27 21:41:02;;;;;;;8.48;4.97;;;14.70;40.50;;;;;;5012027;28;20294;-86
2023/05/27 21:43:30;;;;;;;11.57;4.82;;;14.70;41.60;;;;;;5004262;28;20211;-89
2023/05/27 21:45:57;;;;;;;10.38;5.25;;;14.60;42.30;;;;;;4993203;28;20286;-89
2023/05/27 21:48:25;;;;;;;9.40;5.03;;;14.50;42.90;;;;;;5012913;28;20660;-86
2023/05/27 21:50:52;;;;;;;10.80;4.90;;;14.40;43.70;;;;;;5005132;28;20671;-86
2023/05/27 21:53:20;;;;;;;10.52;5.13;;;14.30;44.60;;;;;;5006920;28;20261;-87
2023/05/27 21:55:50;;;;;;;11.05;5.18;;;14.20;46.30;;;;;;5002592;28;20231;-88
2023/05/27 21:58:17;;;;;;;8.35;5.00;;;14.20;46.50;;;;;;5014769;28;20215;-89
2023/05/27 22:00:48;;;;;;;9.13;5.10;;;14.10;47.00;;;;;;5008958;28;20199;-84
2023/05/27 22:03:16;;;;;;;7.93;4.72;;;14.10;47.40;;;;;;5020468;28;20315;-87
2023/05/27 22:05:47;;;;;;;9.32;5.20;;;14.10;48.40;;;;;;5011764;28;20230;-85
2023/05/27 22:08:15;;;;;;;12.07;5.28;;;14.10;50.50;;;;;;5012927;28;20234;-88
2023/05/27 22:10:42;;;;;;;8.63;4.88;;;14.10;50.50;;;;;;4986448;28;20249;-86
2023/05/27 22:13:09;;;;;;;9.20;5.40;;;14.00;50.50;;;;;;5015189;28;20633;-88
2023/05/27 22:15:37;;;;;;;10.90;5.35;;;14.00;52.30;;;;;;5002161;28;20592;-88
2023/05/27 22:18:04;;;;;;;10.80;4.90;;;13.90;53.80;;;;;;4996713;28;20251;-88
2023/05/27 22:20:32;;;;;;;8.88;5.25;;;13.90;54.50;;;;;;4998026;28;20204;-88
2023/05/27 22:23:05;;;;;;;12.43;4.97;;;13.80;55.90;;;;;;5016631;28;20246;-89
2023/05/27 22:25:32;;;;;;;10.27;5.20;;;13.70;55.70;;;;;;5017808;28;20221;-85